sensor_id;sensor_type;location;lat;lon;timestamp;pressure;altitude;pressure_sealevel;temperature;humidity
33075;BME280;19433;51.292;6.868;2022-10-16T00:01:45;99925.75;;;12.38;100.00
33075;BME280;19433;51.292;6.868;2022-10-16T00:04:11;99929.69;;;12.30;100.00
33075;BME280;19433;51.292;6.868;2022-10-16T00:06:36;99924.50;;;12.16;100.00
33075;BME280;19433;51.292;6.868;2022-10-16T00:09:02;99930.31;;;12.08;100.00
33075;BME280;19433;51.292;6.868;2022-10-16T00:11:31;99932.38;;;12.19;100.00
33075;BME280;19433;51.292;6.868;2022-10-16T00:14:07;99935.09;;;12.01;100.00
33075;BME280;19433;51.292;6.868;2022-10-16T00:16:33;99925.41;;;12.10;100.00
33075;BME280;19433;51.292;6.868;2022-10-16T00:18:58;99931.97;;;12.15;100.00
33075;BME280;19433;51.292;6.868;2022-10-16T00:21:26;99933.84;;;11.96;100.00
33075;BME280;19433;51.292;6.868;2022-10-16T00:23:59;99951.72;;;11.76;100.00
33075;BME280;19433;51.292;6.868;2022-10-16T00:26:26;99949.13;;;11.74;100.00
33075;BME280;19433;51.292;6.868;2022-10-16T00:28:52;99945.09;;;11.70;100.00
33075;BME280;19433;51.292;6.868;2022-10-16T00:31:23;99948.19;;;11.87;100.00
33075;BME280;19433;51.292;6.868;2022-10-16T00:33:49;99950.41;;;11.72;100.00
33075;BME280;19433;51.292;6.868;2022-10-16T00:36:18;99948.06;;;11.75;100.00
33075;BME280;19433;51.292;6.868;2022-10-16T00:38:44;99938.94;;;11.68;100.00
33075;BME280;19433;51.292;6.868;2022-10-16T00:41:13;99942.66;;;11.87;100.00
33075;BME280;19433;51.292;6.868;2022-10-16T00:43:47;99935.88;;;11.83;100.00
33075;BME280;19433;51.292;6.868;2022-10-16T00:48:51;99941.06;;;11.73;100.00
33075;BME280;19433;51.292;6.868;2022-10-16T00:51:23;99935.94;;;12.01;100.00
33075;BME280;19433;51.292;6.868;2022-10-16T00:53:49;99934.75;;;11.90;100.00
33075;BME280;19433;51.292;6.868;2022-10-16T00:56:16;99927.34;;;11.84;100.00
33075;BME280;19433;51.292;6.868;2022-10-16T00:58:41;99935.03;;;11.82;100.00
33075;BME280;19433;51.292;6.868;2022-10-16T01:01:06;99929.94;;;11.79;100.00
33075;BME280;19433;51.292;6.868;2022-10-16T01:03:34;99926.25;;;11.60;100.00
33075;BME280;19433;51.292;6.868;2022-10-16T01:06:12;99928.28;;;11.72;100.00
33075;BME280;19433;51.292;6.868;2022-10-16T01:11:35;99927.44;;;11.71;100.00
33075;BME280;19433;51.292;6.868;2022-10-16T01:14:16;99928.91;;;11.74;100.00
33075;BME280;19433;51.292;6.868;2022-10-16T01:16:50;99937.13;;;11.87;100.00
33075;BME280;19433;51.292;6.868;2022-10-16T01:19:41;99935.47;;;11.79;100.00
33075;BME280;19433;51.292;6.868;2022-10-16T01:22:09;99948.94;;;11.76;100.00
33075;BME280;19433;51.292;6.868;2022-10-16T01:24:40;99956.41;;;11.69;100.00
33075;BME280;19433;51.292;6.868;2022-10-16T01:27:25;99953.44;;;11.63;100.00
33075;BME280;19433;51.292;6.868;2022-10-16T01:30:13;99954.41;;;11.82;100.00
33075;BME280;19433;51.292;6.868;2022-10-16T01:32:45;99940.88;;;11.68;100.00
33075;BME280;19433;51.292;6.868;2022-10-16T01:35:29;99932.94;;;11.78;100.00
33075;BME280;19433;51.292;6.868;2022-10-16T01:38:03;99941.81;;;11.86;100.00
33075;BME280;19433;51.292;6.868;2022-10-16T01:40:32;99941.81;;;11.86;100.00
33075;BME280;19433;51.292;6.868;2022-10-16T01:43:02;99935.31;;;11.99;100.00
33075;BME280;19433;51.292;6.868;2022-10-16T01:45:31;99937.47;;;11.97;100.00
33075;BME280;19433;51.292;6.868;2022-10-16T01:48:00;99936.56;;;12.03;100.00
33075;BME280;19433;51.292;6.868;2022-10-16T01:50:29;99948.94;;;12.01;100.00
33075;BME280;19433;51.292;6.868;2022-10-16T01:52:57;99957.00;;;12.02;100.00
33075;BME280;19433;51.292;6.868;2022-10-16T01:55:31;99943.94;;;12.09;100.00
33075;BME280;19433;51.292;6.868;2022-10-16T01:57:57;99945.84;;;12.09;100.00
33075;BME280;19433;51.292;6.868;2022-10-16T02:00:26;99942.59;;;12.18;100.00
33075;BME280;19433;51.292;6.868;2022-10-16T02:02:53;99960.28;;;12.17;100.00
33075;BME280;19433;51.292;6.868;2022-10-16T02:05:23;99932.19;;;12.14;100.00
33075;BME280;19433;51.292;6.868;2022-10-16T02:07:49;99941.84;;;12.29;100.00
33075;BME280;19433;51.292;6.868;2022-10-16T02:10:15;99938.56;;;12.14;100.00
33075;BME280;19433;51.292;6.868;2022-10-16T02:12:45;99945.75;;;12.22;100.00
33075;BME280;19433;51.292;6.868;2022-10-16T02:15:13;99944.13;;;12.14;100.00
33075;BME280;19433;51.292;6.868;2022-10-16T02:17:38;99949.97;;;12.06;100.00
33075;BME280;19433;51.292;6.868;2022-10-16T02:20:04;99955.81;;;12.16;100.00
33075;BME280;19433;51.292;6.868;2022-10-16T02:22:34;99951.03;;;12.23;100.00
33075;BME280;19433;51.292;6.868;2022-10-16T02:25:16;99951.13;;;12.17;100.00
33075;BME280;19433;51.292;6.868;2022-10-16T02:27:56;99962.16;;;12.42;100.00
33075;BME280;19433;51.292;6.868;2022-10-16T02:32:53;99959.97;;;12.25;100.00
33075;BME280;19433;51.292;6.868;2022-10-16T02:35:21;99966.22;;;12.39;100.00
33075;BME280;19433;51.292;6.868;2022-10-16T02:37:48;99964.16;;;12.35;100.00
33075;BME280;19433;51.292;6.868;2022-10-16T02:40:15;99969.97;;;12.51;100.00
33075;BME280;19433;51.292;6.868;2022-10-16T02:42:42;99966.47;;;12.56;100.00
33075;BME280;19433;51.292;6.868;2022-10-16T02:45:09;99967.47;;;12.43;100.00
33075;BME280;19433;51.292;6.868;2022-10-16T02:47:35;99971.19;;;12.37;100.00
33075;BME280;19433;51.292;6.868;2022-10-16T02:50:01;99975.25;;;12.35;100.00
33075;BME280;19433;51.292;6.868;2022-10-16T02:52:26;99967.06;;;12.40;100.00
33075;BME280;19433;51.292;6.868;2022-10-16T02:54:51;99966.84;;;12.41;100.00
33075;BME280;19433;51.292;6.868;2022-10-16T02:57:17;99955.06;;;12.27;100.00
33075;BME280;19433;51.292;6.868;2022-10-16T02:59:44;99963.69;;;12.38;100.00
33075;BME280;19433;51.292;6.868;2022-10-16T03:02:10;99968.72;;;12.47;100.00
33075;BME280;19433;51.292;6.868;2022-10-16T03:04:36;99960.91;;;12.38;100.00
33075;BME280;19433;51.292;6.868;2022-10-16T03:07:01;99952.38;;;12.21;100.00
33075;BME280;19433;51.292;6.868;2022-10-16T03:09:27;99965.66;;;12.12;100.00
33075;BME280;19433;51.292;6.868;2022-10-16T03:11:52;99962.25;;;12.10;100.00
33075;BME280;19433;51.292;6.868;2022-10-16T03:14:17;99965.09;;;12.04;100.00
33075;BME280;19433;51.292;6.868;2022-10-16T03:16:43;99964.13;;;12.16;100.00
33075;BME280;19433;51.292;6.868;2022-10-16T03:19:08;99952.25;;;12.09;100.00
33075;BME280;19433;51.292;6.868;2022-10-16T03:21:33;99964.66;;;12.07;100.00
33075;BME280;19433;51.292;6.868;2022-10-16T03:23:59;99951.63;;;12.32;100.00
33075;BME280;19433;51.292;6.868;2022-10-16T03:26:24;99966.13;;;12.27;100.00
33075;BME280;19433;51.292;6.868;2022-10-16T03:28:49;99965.28;;;12.27;100.00
33075;BME280;19433;51.292;6.868;2022-10-16T03:31:15;99956.13;;;12.26;100.00
33075;BME280;19433;51.292;6.868;2022-10-16T03:33:42;99956.59;;;12.23;100.00
33075;BME280;19433;51.292;6.868;2022-10-16T03:36:07;99969.22;;;12.19;100.00
33075;BME280;19433;51.292;6.868;2022-10-16T03:38:33;99966.16;;;12.03;100.00
33075;BME280;19433;51.292;6.868;2022-10-16T03:40:58;99972.53;;;11.78;100.00
33075;BME280;19433;51.292;6.868;2022-10-16T03:43:23;99972.16;;;11.68;100.00
33075;BME280;19433;51.292;6.868;2022-10-16T03:45:52;99970.38;;;11.80;100.00
33075;BME280;19433;51.292;6.868;2022-10-16T03:48:18;99975.72;;;11.75;100.00
33075;BME280;19433;51.292;6.868;2022-10-16T03:50:44;99974.69;;;11.70;100.00
33075;BME280;19433;51.292;6.868;2022-10-16T03:53:09;99972.97;;;11.44;100.00
33075;BME280;19433;51.292;6.868;2022-10-16T03:55:35;99963.88;;;11.61;100.00
33075;BME280;19433;51.292;6.868;2022-10-16T03:58:00;99977.78;;;11.55;100.00
33075;BME280;19433;51.292;6.868;2022-10-16T04:00:25;99973.41;;;11.41;100.00
33075;BME280;19433;51.292;6.868;2022-10-16T04:02:51;99973.03;;;11.31;100.00
33075;BME280;19433;51.292;6.868;2022-10-16T04:05:16;99981.50;;;11.42;100.00
33075;BME280;19433;51.292;6.868;2022-10-16T04:07:41;99971.41;;;11.54;100.00
33075;BME280;19433;51.292;6.868;2022-10-16T04:10:07;99977.81;;;11.48;100.00
33075;BME280;19433;51.292;6.868;2022-10-16T04:12:32;99989.78;;;11.42;100.00
33075;BME280;19433;51.292;6.868;2022-10-16T04:14:57;100000.06;;;11.28;100.00
33075;BME280;19433;51.292;6.868;2022-10-16T04:17:23;99995.03;;;11.12;100.00
33075;BME280;19433;51.292;6.868;2022-10-16T04:19:48;99990.81;;;11.03;100.00
33075;BME280;19433;51.292;6.868;2022-10-16T04:22:13;100000.16;;;11.09;100.00
33075;BME280;19433;51.292;6.868;2022-10-16T04:24:39;100009.72;;;11.06;100.00
33075;BME280;19433;51.292;6.868;2022-10-16T04:27:04;100016.34;;;11.05;100.00
33075;BME280;19433;51.292;6.868;2022-10-16T04:29:29;100014.19;;;11.14;100.00
33075;BME280;19433;51.292;6.868;2022-10-16T04:31:54;100022.28;;;11.09;100.00
33075;BME280;19433;51.292;6.868;2022-10-16T04:34:20;100037.53;;;11.18;100.00
33075;BME280;19433;51.292;6.868;2022-10-16T04:36:48;100026.09;;;11.08;100.00
33075;BME280;19433;51.292;6.868;2022-10-16T04:39:14;100025.41;;;11.19;100.00
33075;BME280;19433;51.292;6.868;2022-10-16T04:41:40;100023.09;;;11.16;100.00
33075;BME280;19433;51.292;6.868;2022-10-16T04:44:05;100024.34;;;11.20;100.00
33075;BME280;19433;51.292;6.868;2022-10-16T04:46:30;100012.22;;;11.21;100.00
33075;BME280;19433;51.292;6.868;2022-10-16T04:48:56;100015.56;;;11.36;100.00
33075;BME280;19433;51.292;6.868;2022-10-16T04:51:21;100016.16;;;11.45;100.00
33075;BME280;19433;51.292;6.868;2022-10-16T04:53:46;100033.47;;;11.27;100.00
33075;BME280;19433;51.292;6.868;2022-10-16T04:56:12;100045.03;;;11.11;100.00
33075;BME280;19433;51.292;6.868;2022-10-16T04:58:37;100042.00;;;11.25;100.00
33075;BME280;19433;51.292;6.868;2022-10-16T05:01:05;100045.81;;;11.24;100.00
33075;BME280;19433;51.292;6.868;2022-10-16T05:03:31;100031.78;;;11.26;100.00
33075;BME280;19433;51.292;6.868;2022-10-16T05:05:56;100048.59;;;11.24;100.00
33075;BME280;19433;51.292;6.868;2022-10-16T05:08:21;100048.38;;;11.26;100.00
33075;BME280;19433;51.292;6.868;2022-10-16T05:10:47;100049.44;;;11.25;100.00
33075;BME280;19433;51.292;6.868;2022-10-16T05:13:12;100057.78;;;11.12;100.00
33075;BME280;19433;51.292;6.868;2022-10-16T05:15:38;100050.34;;;11.12;100.00
33075;BME280;19433;51.292;6.868;2022-10-16T05:18:03;100063.09;;;11.07;100.00
33075;BME280;19433;51.292;6.868;2022-10-16T05:20:28;100064.16;;;11.12;100.00
33075;BME280;19433;51.292;6.868;2022-10-16T05:22:54;100072.25;;;11.01;100.00
33075;BME280;19433;51.292;6.868;2022-10-16T05:25:19;100069.09;;;10.97;100.00
33075;BME280;19433;51.292;6.868;2022-10-16T05:27:48;100077.59;;;10.96;100.00
33075;BME280;19433;51.292;6.868;2022-10-16T05:30:14;100070.72;;;11.18;100.00
33075;BME280;19433;51.292;6.868;2022-10-16T05:32:39;100076.09;;;11.06;100.00
33075;BME280;19433;51.292;6.868;2022-10-16T05:35:05;100079.88;;;11.18;100.00
33075;BME280;19433;51.292;6.868;2022-10-16T05:37:30;100075.44;;;11.11;100.00
33075;BME280;19433;51.292;6.868;2022-10-16T05:39:55;100079.28;;;11.03;100.00
33075;BME280;19433;51.292;6.868;2022-10-16T05:42:21;100078.00;;;11.12;100.00
33075;BME280;19433;51.292;6.868;2022-10-16T05:44:47;100080.28;;;11.15;100.00
33075;BME280;19433;51.292;6.868;2022-10-16T05:47:13;100081.13;;;11.16;100.00
33075;BME280;19433;51.292;6.868;2022-10-16T05:49:39;100080.97;;;11.04;100.00
33075;BME280;19433;51.292;6.868;2022-10-16T05:52:04;100092.03;;;11.04;100.00
33075;BME280;19433;51.292;6.868;2022-10-16T05:54:29;100101.34;;;11.30;100.00
33075;BME280;19433;51.292;6.868;2022-10-16T05:56:55;100107.97;;;11.09;100.00
33075;BME280;19433;51.292;6.868;2022-10-16T05:59:20;100114.94;;;11.24;100.00
33075;BME280;19433;51.292;6.868;2022-10-16T06:01:45;100100.84;;;11.39;100.00
33075;BME280;19433;51.292;6.868;2022-10-16T06:04:10;100116.00;;;11.30;100.00
33075;BME280;19433;51.292;6.868;2022-10-16T06:06:36;100119.88;;;11.09;100.00
33075;BME280;19433;51.292;6.868;2022-10-16T06:09:02;100120.91;;;11.21;100.00
33075;BME280;19433;51.292;6.868;2022-10-16T06:11:29;100117.06;;;11.29;100.00
33075;BME280;19433;51.292;6.868;2022-10-16T06:13:57;100126.66;;;11.26;100.00
33075;BME280;19433;51.292;6.868;2022-10-16T06:16:24;100129.78;;;11.43;100.00
33075;BME280;19433;51.292;6.868;2022-10-16T06:18:51;100132.34;;;11.38;100.00
33075;BME280;19433;51.292;6.868;2022-10-16T06:21:19;100148.91;;;11.51;100.00
33075;BME280;19433;51.292;6.868;2022-10-16T06:23:45;100134.03;;;11.39;100.00
33075;BME280;19433;51.292;6.868;2022-10-16T06:26:16;100132.94;;;11.53;100.00
33075;BME280;19433;51.292;6.868;2022-10-16T06:28:41;100140.78;;;11.56;100.00
33075;BME280;19433;51.292;6.868;2022-10-16T06:31:08;100144.78;;;11.74;100.00
33075;BME280;19433;51.292;6.868;2022-10-16T06:33:36;100149.28;;;11.61;100.00
33075;BME280;19433;51.292;6.868;2022-10-16T06:38:28;100136.47;;;11.67;100.00
33075;BME280;19433;51.292;6.868;2022-10-16T06:40:53;100143.47;;;11.83;100.00
33075;BME280;19433;51.292;6.868;2022-10-16T06:43:18;100140.00;;;11.94;100.00
33075;BME280;19433;51.292;6.868;2022-10-16T06:45:50;100152.31;;;11.98;100.00
33075;BME280;19433;51.292;6.868;2022-10-16T06:48:16;100157.00;;;11.97;100.00
33075;BME280;19433;51.292;6.868;2022-10-16T06:50:41;100179.34;;;12.03;100.00
33075;BME280;19433;51.292;6.868;2022-10-16T06:53:06;100166.31;;;12.10;100.00
33075;BME280;19433;51.292;6.868;2022-10-16T06:55:31;100180.25;;;12.35;100.00
33075;BME280;19433;51.292;6.868;2022-10-16T06:57:57;100189.66;;;12.58;100.00
33075;BME280;19433;51.292;6.868;2022-10-16T07:00:22;100196.03;;;12.59;100.00
33075;BME280;19433;51.292;6.868;2022-10-16T07:02:47;100192.94;;;12.74;100.00
33075;BME280;19433;51.292;6.868;2022-10-16T07:05:12;100194.31;;;12.89;100.00
33075;BME280;19433;51.292;6.868;2022-10-16T07:07:38;100204.53;;;12.89;100.00
33075;BME280;19433;51.292;6.868;2022-10-16T07:10:03;100201.00;;;12.82;100.00
33075;BME280;19433;51.292;6.868;2022-10-16T07:12:29;100214.44;;;12.78;100.00
33075;BME280;19433;51.292;6.868;2022-10-16T07:14:54;100216.59;;;12.76;100.00
33075;BME280;19433;51.292;6.868;2022-10-16T07:17:20;100217.16;;;12.85;100.00
33075;BME280;19433;51.292;6.868;2022-10-16T07:19:45;100229.09;;;12.54;100.00
33075;BME280;19433;51.292;6.868;2022-10-16T07:22:11;100233.56;;;12.55;100.00
33075;BME280;19433;51.292;6.868;2022-10-16T07:24:37;100235.78;;;12.46;100.00
33075;BME280;19433;51.292;6.868;2022-10-16T07:27:03;100236.28;;;12.30;100.00
33075;BME280;19433;51.292;6.868;2022-10-16T07:29:28;100243.25;;;12.39;100.00
33075;BME280;19433;51.292;6.868;2022-10-16T07:31:53;100248.13;;;12.50;100.00
33075;BME280;19433;51.292;6.868;2022-10-16T07:34:19;100253.06;;;12.73;100.00
33075;BME280;19433;51.292;6.868;2022-10-16T07:36:50;100246.28;;;12.69;100.00
33075;BME280;19433;51.292;6.868;2022-10-16T07:39:16;100248.66;;;12.97;100.00
33075;BME280;19433;51.292;6.868;2022-10-16T07:41:41;100261.16;;;14.89;100.00
33075;BME280;19433;51.292;6.868;2022-10-16T07:44:06;100276.97;;;17.58;89.53
33075;BME280;19433;51.292;6.868;2022-10-16T07:46:32;100289.06;;;19.12;78.34
33075;BME280;19433;51.292;6.868;2022-10-16T07:48:59;100289.81;;;20.50;73.26
33075;BME280;19433;51.292;6.868;2022-10-16T07:51:25;100303.63;;;22.65;65.44
33075;BME280;19433;51.292;6.868;2022-10-16T07:53:52;100309.59;;;24.67;56.57
33075;BME280;19433;51.292;6.868;2022-10-16T07:56:18;100322.03;;;25.84;51.63
33075;BME280;19433;51.292;6.868;2022-10-16T07:58:44;100325.13;;;27.38;47.65
33075;BME280;19433;51.292;6.868;2022-10-16T08:01:12;100339.59;;;27.64;44.85
33075;BME280;19433;51.292;6.868;2022-10-16T08:03:40;100331.06;;;28.70;43.32
33075;BME280;19433;51.292;6.868;2022-10-16T08:06:06;100345.38;;;29.62;39.99
33075;BME280;19433;51.292;6.868;2022-10-16T08:08:31;100340.16;;;29.98;39.19
33075;BME280;19433;51.292;6.868;2022-10-16T08:10:58;100352.19;;;30.85;35.55
33075;BME280;19433;51.292;6.868;2022-10-16T08:13:25;100353.47;;;30.88;34.81
33075;BME280;19433;51.292;6.868;2022-10-16T08:15:53;100349.66;;;30.84;34.61
33075;BME280;19433;51.292;6.868;2022-10-16T08:18:18;100347.41;;;31.27;34.09
33075;BME280;19433;51.292;6.868;2022-10-16T08:20:45;100354.06;;;31.81;33.34
33075;BME280;19433;51.292;6.868;2022-10-16T08:23:13;100362.63;;;31.10;33.96
33075;BME280;19433;51.292;6.868;2022-10-16T08:25:39;100364.94;;;31.46;33.52
33075;BME280;19433;51.292;6.868;2022-10-16T08:28:06;100373.28;;;32.47;31.69
33075;BME280;19433;51.292;6.868;2022-10-16T08:30:32;100378.03;;;32.43;30.96
33075;BME280;19433;51.292;6.868;2022-10-16T08:32:57;100385.34;;;32.53;30.40
33075;BME280;19433;51.292;6.868;2022-10-16T08:35:23;100382.69;;;33.53;29.96
33075;BME280;19433;51.292;6.868;2022-10-16T08:37:49;100392.13;;;33.42;29.80
33075;BME280;19433;51.292;6.868;2022-10-16T08:40:28;100373.78;;;34.11;27.99
33075;BME280;19433;51.292;6.868;2022-10-16T08:45:42;100387.81;;;33.60;28.87
33075;BME280;19433;51.292;6.868;2022-10-16T08:48:23;100376.47;;;32.91;30.04
33075;BME280;19433;51.292;6.868;2022-10-16T08:50:52;100377.09;;;33.33;29.21
33075;BME280;19433;51.292;6.868;2022-10-16T08:53:24;100393.78;;;33.55;28.38
33075;BME280;19433;51.292;6.868;2022-10-16T08:55:51;100399.66;;;33.99;26.92
33075;BME280;19433;51.292;6.868;2022-10-16T08:58:19;100409.38;;;33.70;27.39
33075;BME280;19433;51.292;6.868;2022-10-16T09:01:04;100410.50;;;33.53;28.41
33075;BME280;19433;51.292;6.868;2022-10-16T09:03:54;100419.44;;;34.16;27.58
33075;BME280;19433;51.292;6.868;2022-10-16T09:09:24;100421.22;;;35.23;25.98
33075;BME280;19433;51.292;6.868;2022-10-16T09:14:28;100425.16;;;33.88;26.96
33075;BME280;19433;51.292;6.868;2022-10-16T09:19:52;100418.22;;;33.65;27.35
33075;BME280;19433;51.292;6.868;2022-10-16T09:22:21;100429.28;;;34.58;27.09
33075;BME280;19433;51.292;6.868;2022-10-16T09:24:54;100421.84;;;36.38;25.10
33075;BME280;19433;51.292;6.868;2022-10-16T09:27:20;100438.50;;;35.74;24.51
33075;BME280;19433;51.292;6.868;2022-10-16T09:29:45;100436.94;;;34.27;26.27
33075;BME280;19433;51.292;6.868;2022-10-16T09:32:14;100437.44;;;35.32;25.48
33075;BME280;19433;51.292;6.868;2022-10-16T09:34:45;100436.88;;;34.51;25.47
33075;BME280;19433;51.292;6.868;2022-10-16T09:37:14;100445.78;;;34.62;25.84
33075;BME280;19433;51.292;6.868;2022-10-16T09:39:50;100440.94;;;34.78;24.97
33075;BME280;19433;51.292;6.868;2022-10-16T09:42:18;100436.25;;;35.33;24.47
33075;BME280;19433;51.292;6.868;2022-10-16T09:44:48;100444.28;;;35.93;24.09
33075;BME280;19433;51.292;6.868;2022-10-16T09:47:18;100429.16;;;32.77;28.43
33075;BME280;19433;51.292;6.868;2022-10-16T09:49:53;100421.69;;;31.77;28.83
33075;BME280;19433;51.292;6.868;2022-10-16T09:52:22;100417.44;;;30.23;31.37
33075;BME280;19433;51.292;6.868;2022-10-16T09:54:58;100423.56;;;32.36;28.73
33075;BME280;19433;51.292;6.868;2022-10-16T09:57:24;100433.53;;;34.21;26.50
33075;BME280;19433;51.292;6.868;2022-10-16T09:59:52;100422.34;;;32.16;28.42
33075;BME280;19433;51.292;6.868;2022-10-16T10:02:34;100426.94;;;32.08;28.33
33075;BME280;19433;51.292;6.868;2022-10-16T10:04:59;100425.41;;;33.10;27.18
33075;BME280;19433;51.292;6.868;2022-10-16T10:07:27;100424.72;;;33.25;26.81
33075;BME280;19433;51.292;6.868;2022-10-16T10:09:55;100438.75;;;34.59;25.84
33075;BME280;19433;51.292;6.868;2022-10-16T10:12:27;100434.69;;;35.70;24.71
33075;BME280;19433;51.292;6.868;2022-10-16T10:14:55;100438.44;;;36.44;23.38
33075;BME280;19433;51.292;6.868;2022-10-16T10:17:30;100435.00;;;36.77;22.99
33075;BME280;19433;51.292;6.868;2022-10-16T10:20:00;100431.72;;;34.72;24.31
33075;BME280;19433;51.292;6.868;2022-10-16T10:22:44;100426.94;;;32.08;28.33
33075;BME280;19433;51.292;6.868;2022-10-16T10:30:29;100457.69;;;35.70;23.71
33075;BME280;19433;51.292;6.868;2022-10-16T10:33:31;100457.13;;;35.80;24.12
33075;BME280;19433;51.292;6.868;2022-10-16T10:38:38;100449.09;;;37.28;21.82
33075;BME280;19433;51.292;6.868;2022-10-16T10:41:24;100441.00;;;37.60;21.64
33075;BME280;19433;51.292;6.868;2022-10-16T10:43:58;100456.91;;;36.24;22.36
33075;BME280;19433;51.292;6.868;2022-10-16T10:46:41;100444.75;;;33.49;25.56
33075;BME280;19433;51.292;6.868;2022-10-16T10:49:20;100426.41;;;29.47;31.27
33075;BME280;19433;51.292;6.868;2022-10-16T10:51:59;100429.66;;;30.06;32.10
33075;BME280;19433;51.292;6.868;2022-10-16T10:54:38;100438.28;;;31.55;29.40
33075;BME280;19433;51.292;6.868;2022-10-16T10:59:45;100449.41;;;34.74;24.55
33075;BME280;19433;51.292;6.868;2022-10-16T11:02:22;100451.44;;;35.33;24.39
33075;BME280;19433;51.292;6.868;2022-10-16T11:05:31;100448.41;;;34.67;23.98
33075;BME280;19433;51.292;6.868;2022-10-16T11:08:10;100456.56;;;36.10;22.90
33075;BME280;19433;51.292;6.868;2022-10-16T11:13:35;100456.38;;;36.38;21.84
33075;BME280;19433;51.292;6.868;2022-10-16T11:16:18;100468.38;;;35.22;22.55
33075;BME280;19433;51.292;6.868;2022-10-16T11:18:56;100456.91;;;35.38;22.96
33075;BME280;19433;51.292;6.868;2022-10-16T11:21:24;100461.19;;;35.95;22.74
33075;BME280;19433;51.292;6.868;2022-10-16T11:23:56;100465.63;;;35.92;22.34
33075;BME280;19433;51.292;6.868;2022-10-16T11:26:35;100462.59;;;34.47;24.16
33075;BME280;19433;51.292;6.868;2022-10-16T11:29:10;100446.91;;;33.40;26.13
33075;BME280;19433;51.292;6.868;2022-10-16T11:31:43;100443.75;;;31.68;27.34
33075;BME280;19433;51.292;6.868;2022-10-16T11:37:11;100448.25;;;31.10;28.42
33075;BME280;19433;51.292;6.868;2022-10-16T11:39:38;100443.25;;;31.37;27.63
33075;BME280;19433;51.292;6.868;2022-10-16T11:42:10;100445.59;;;31.64;27.46
33075;BME280;19433;51.292;6.868;2022-10-16T11:47:26;100442.06;;;29.93;29.32
33075;BME280;19433;51.292;6.868;2022-10-16T11:49:57;100450.78;;;31.41;27.87
33075;BME280;19433;51.292;6.868;2022-10-16T11:55:18;100457.16;;;31.47;27.76
33075;BME280;19433;51.292;6.868;2022-10-16T11:57:51;100449.75;;;29.92;29.31
33075;BME280;19433;51.292;6.868;2022-10-16T12:00:23;100433.41;;;27.04;33.59
33075;BME280;19433;51.292;6.868;2022-10-16T12:02:57;100424.13;;;24.83;38.00
33075;BME280;19433;51.292;6.868;2022-10-16T12:08:11;100450.66;;;28.96;32.28
33075;BME280;19433;51.292;6.868;2022-10-16T12:10:40;100452.94;;;29.34;30.40
33075;BME280;19433;51.292;6.868;2022-10-16T12:13:28;100454.63;;;28.64;31.95
33075;BME280;19433;51.292;6.868;2022-10-16T12:18:39;100440.84;;;26.86;35.70
33075;BME280;19433;51.292;6.868;2022-10-16T12:21:05;100452.09;;;27.96;33.68
33075;BME280;19433;51.292;6.868;2022-10-16T12:23:45;100446.72;;;29.71;30.83
33075;BME280;19433;51.292;6.868;2022-10-16T12:26:11;100449.25;;;29.25;30.17
33075;BME280;19433;51.292;6.868;2022-10-16T12:28:37;100445.56;;;29.24;30.38
33075;BME280;19433;51.292;6.868;2022-10-16T12:31:08;100448.09;;;30.34;29.19
33075;BME280;19433;51.292;6.868;2022-10-16T12:33:41;100455.09;;;29.77;29.74
33075;BME280;19433;51.292;6.868;2022-10-16T12:36:15;100441.03;;;29.15;30.36
33075;BME280;19433;51.292;6.868;2022-10-16T12:38:49;100432.34;;;28.13;32.12
33075;BME280;19433;51.292;6.868;2022-10-16T12:41:33;100438.75;;;27.06;34.48
33075;BME280;19433;51.292;6.868;2022-10-16T12:44:00;100436.91;;;26.04;36.00
33075;BME280;19433;51.292;6.868;2022-10-16T12:51:40;100445.19;;;25.20;39.12
33075;BME280;19433;51.292;6.868;2022-10-16T12:54:29;100442.66;;;25.18;39.72
33075;BME280;19433;51.292;6.868;2022-10-16T13:14:54;100435.09;;;25.14;39.03
33075;BME280;19433;51.292;6.868;2022-10-16T13:17:37;100422.72;;;23.94;43.35
33075;BME280;19433;51.292;6.868;2022-10-16T13:20:17;100434.75;;;24.05;41.87
33075;BME280;19433;51.292;6.868;2022-10-16T13:25:34;100437.72;;;27.02;38.16
33075;BME280;19433;51.292;6.868;2022-10-16T13:28:06;100450.63;;;27.62;35.50
33075;BME280;19433;51.292;6.868;2022-10-16T13:30:52;100450.25;;;25.42;38.97
33075;BME280;19433;51.292;6.868;2022-10-16T13:33:38;100443.56;;;23.54;43.57
33075;BME280;19433;51.292;6.868;2022-10-16T13:36:05;100442.69;;;22.99;44.53
33075;BME280;19433;51.292;6.868;2022-10-16T13:38:33;100430.34;;;22.80;46.58
33075;BME280;19433;51.292;6.868;2022-10-16T13:41:01;100436.53;;;22.77;46.81
33075;BME280;19433;51.292;6.868;2022-10-16T13:44:02;100435.72;;;22.46;49.17
33075;BME280;19433;51.292;6.868;2022-10-16T13:46:27;100419.97;;;22.55;47.39
33075;BME280;19433;51.292;6.868;2022-10-16T13:49:05;100435.41;;;22.63;47.68
33075;BME280;19433;51.292;6.868;2022-10-16T13:51:32;100442.06;;;23.07;47.07
33075;BME280;19433;51.292;6.868;2022-10-16T13:53:58;100429.81;;;22.53;50.41
33075;BME280;19433;51.292;6.868;2022-10-16T13:56:28;100428.72;;;22.38;48.36
33075;BME280;19433;51.292;6.868;2022-10-16T13:59:06;100432.09;;;22.00;48.82
33075;BME280;19433;51.292;6.868;2022-10-16T14:01:42;100434.06;;;22.45;47.72
33075;BME280;19433;51.292;6.868;2022-10-16T14:04:13;100431.19;;;22.86;46.26
33075;BME280;19433;51.292;6.868;2022-10-16T14:06:45;100430.06;;;22.71;46.64
33075;BME280;19433;51.292;6.868;2022-10-16T14:09:26;100423.09;;;22.03;47.86
33075;BME280;19433;51.292;6.868;2022-10-16T14:11:58;100448.84;;;21.34;51.41
33075;BME280;19433;51.292;6.868;2022-10-16T14:14:27;100444.41;;;20.86;53.90